createdAt,value
2018-12-20T00:02:02.688Z,101071.31
2018-12-20T00:04:30.496Z,101067.52
2018-12-20T00:06:58.145Z,101063.99
2018-12-20T00:09:25.849Z,101065.83
2018-12-20T00:11:53.655Z,101067.36
2018-12-20T00:14:21.419Z,101060.19
2018-12-20T00:16:51.056Z,101056.00
2018-12-20T00:19:18.639Z,101052.62
2018-12-20T00:21:46.243Z,101053.07
2018-12-20T00:24:14.213Z,101059.35
2018-12-20T00:26:41.809Z,101059.23
2018-12-20T00:29:09.409Z,101063.55
2018-12-20T00:31:36.961Z,101068.59
2018-12-20T00:34:04.581Z,101065.20
2018-12-20T00:36:32.198Z,101063.20
2018-12-20T00:38:59.971Z,101072.80
2018-12-20T00:41:27.663Z,101074.27
2018-12-20T00:43:55.456Z,101077.84
2018-12-20T00:46:23.174Z,101078.20
2018-12-20T00:48:50.903Z,101079.99
2018-12-20T00:51:18.464Z,101088.64
2018-12-20T00:53:46.288Z,101091.76
2018-12-20T00:56:14.184Z,101084.56
2018-12-20T00:58:41.796Z,101080.23
2018-12-20T01:01:09.401Z,101091.19
2018-12-20T01:03:37.024Z,101088.10
2018-12-20T01:06:04.862Z,101086.54
2018-12-20T01:08:32.561Z,101085.22
2018-12-20T01:11:00.409Z,101087.59
2018-12-20T01:13:28.032Z,101093.83
2018-12-20T01:15:56.002Z,101090.11
2018-12-20T01:18:23.643Z,101095.99
2018-12-20T01:20:51.739Z,101093.23
2018-12-20T01:23:19.541Z,101090.95
2018-12-20T01:25:47.232Z,101094.07
2018-12-20T01:28:14.796Z,101091.16
2018-12-20T01:30:42.392Z,101093.55
2018-12-20T01:33:10.032Z,101086.69
2018-12-20T01:35:37.706Z,101092.08
2018-12-20T01:38:05.377Z,101085.00
2018-12-20T01:40:32.925Z,101083.95
2018-12-20T01:43:00.596Z,101088.27
2018-12-20T01:45:28.310Z,101085.75
2018-12-20T01:47:56.024Z,101082.63
2018-12-20T01:50:23.726Z,101086.20
2018-12-20T01:52:51.453Z,101085.13
2018-12-20T01:55:19.216Z,101083.44
2018-12-20T01:57:46.913Z,101081.52
2018-12-20T02:00:14.936Z,101083.80
2018-12-20T02:02:42.819Z,101088.13
2018-12-20T02:05:10.485Z,101088.03
2018-12-20T02:07:38.123Z,101087.77
2018-12-20T02:10:05.711Z,101080.23
2018-12-20T02:12:33.349Z,101081.20
2018-12-20T02:15:01.896Z,101080.11
2018-12-20T02:17:30.169Z,101077.84
2018-12-20T02:19:57.790Z,101074.11
2018-12-20T02:22:25.351Z,101077.35
2018-12-20T02:24:53.056Z,101072.95
2018-12-20T02:27:20.884Z,101073.64
2018-12-20T02:29:48.462Z,101077.00
2018-12-20T02:32:16.184Z,101064.03
2018-12-20T02:34:43.824Z,101066.34
2018-12-20T02:37:11.652Z,101061.55
2018-12-20T02:39:39.256Z,101059.59
2018-12-20T02:42:06.853Z,101053.75
2018-12-20T02:44:34.435Z,101053.00
2018-12-20T02:47:02.109Z,101052.30
2018-12-20T02:49:30.181Z,101041.83
2018-12-20T02:51:57.998Z,101047.44
2018-12-20T02:54:25.713Z,101041.23
2018-12-20T02:56:53.545Z,101043.63
2018-12-20T02:59:21.175Z,101046.99
2018-12-20T03:01:48.886Z,101045.75
2018-12-20T03:04:16.444Z,101042.07
2018-12-20T03:06:44.340Z,101039.79
2018-12-20T03:09:12.091Z,101044.87
2018-12-20T03:11:40.023Z,101037.64
2018-12-20T03:14:07.681Z,101045.83
2018-12-20T03:16:35.390Z,101051.95
2018-12-20T03:19:03.085Z,101045.34
2018-12-20T03:21:30.733Z,101049.42
2018-12-20T03:23:58.646Z,101044.87
2018-12-20T03:26:26.236Z,101042.31
2018-12-20T03:28:53.940Z,101040.39
2018-12-20T03:31:21.610Z,101043.19
2018-12-20T03:33:49.190Z,101041.35
2018-12-20T03:36:19.666Z,101029.11
2018-12-20T03:38:47.296Z,101033.19
2018-12-20T03:41:15.194Z,101035.47
2018-12-20T03:43:42.881Z,101034.15
2018-12-20T03:46:10.576Z,101031.88
2018-12-20T03:48:38.209Z,101034.15
2018-12-20T03:51:06.018Z,101022.63
2018-12-20T03:53:33.771Z,101028.72
2018-12-20T03:56:01.425Z,101028.59
2018-12-20T03:58:29.154Z,101025.59
2018-12-20T04:00:56.833Z,101019.98
2018-12-20T04:03:24.513Z,101029.59
2018-12-20T04:05:52.256Z,101032.47
2018-12-20T04:08:20.210Z,101031.51
2018-12-20T04:10:48.126Z,101027.08
2018-12-20T04:13:16.304Z,101029.95
2018-12-20T04:15:44.060Z,101027.44
2018-12-20T04:18:12.039Z,101035.39
2018-12-20T04:20:39.690Z,101033.27
2018-12-20T04:23:07.397Z,101036.75
2018-12-20T04:25:35.373Z,101026.87
2018-12-20T04:28:03.117Z,101031.03
2018-12-20T04:30:30.801Z,101029.63
2018-12-20T04:32:58.565Z,101022.67
2018-12-20T04:35:26.298Z,101022.70
2018-12-20T04:37:54.089Z,101024.23
2018-12-20T04:40:21.709Z,101023.03
2018-12-20T04:42:49.374Z,101026.11
2018-12-20T04:45:17.234Z,101029.03
2018-12-20T04:47:44.932Z,101025.75
2018-12-20T04:50:12.858Z,101032.84
2018-12-20T04:52:40.762Z,101031.03
2018-12-20T04:55:08.315Z,101029.23
2018-12-20T04:57:36.227Z,101021.11
2018-12-20T05:00:05.613Z,101025.67
2018-12-20T05:02:33.171Z,101025.67
2018-12-20T05:05:01.386Z,101015.11
2018-12-20T05:07:28.960Z,101026.03
2018-12-20T05:09:56.990Z,101022.44
2018-12-20T05:12:24.956Z,101026.83
2018-12-20T05:14:52.776Z,101020.58
2018-12-20T05:17:20.467Z,101025.23
2018-12-20T05:19:48.367Z,101029.87
2018-12-20T05:22:16.234Z,101033.23
2018-12-20T05:24:43.909Z,101019.67
2018-12-20T05:27:11.539Z,101012.47
2018-12-20T05:29:39.110Z,101009.31
2018-12-20T05:32:06.947Z,101012.27
2018-12-20T05:34:34.725Z,101010.72
2018-12-20T05:37:02.432Z,101013.59
2018-12-20T05:39:30.326Z,101022.83
2018-12-20T05:41:58.132Z,101016.95
2018-12-20T05:44:25.921Z,101010.08
2018-12-20T05:46:53.842Z,101013.31
2018-12-20T05:49:21.458Z,101018.47
2018-12-20T05:51:49.055Z,101016.75
2018-12-20T05:54:16.757Z,101023.34
2018-12-20T05:56:44.499Z,101027.75
2018-12-20T05:59:12.254Z,101026.43
2018-12-20T06:01:39.998Z,101023.87
2018-12-20T06:04:07.742Z,101026.51
2018-12-20T06:06:35.667Z,101020.59
2018-12-20T06:09:04.093Z,101023.03
2018-12-20T06:11:31.779Z,101013.47
2018-12-20T06:13:59.660Z,101012.95
2018-12-20T06:16:27.302Z,101015.83
2018-12-20T06:18:54.944Z,101013.31
2018-12-20T06:21:22.850Z,101013.31
2018-12-20T06:23:50.633Z,101013.63
2018-12-20T06:26:18.287Z,101014.51
2018-12-20T06:28:45.893Z,101015.07
2018-12-20T06:31:13.500Z,101011.47
2018-12-20T06:33:41.059Z,101013.98
2018-12-20T06:36:08.817Z,101014.59
2018-12-20T06:38:36.441Z,101013.27
2018-12-20T06:41:04.049Z,101010.91
2018-12-20T06:43:31.657Z,101007.75
2018-12-20T06:45:59.261Z,101005.34
2018-12-20T06:48:26.894Z,101010.55
2018-12-20T06:50:54.549Z,101009.91
2018-12-20T06:53:22.182Z,101008.27
2018-12-20T06:55:49.820Z,101008.75
2018-12-20T06:58:17.431Z,101008.34
2018-12-20T07:00:45.025Z,101015.66
2018-12-20T07:03:12.998Z,101015.67
2018-12-20T07:05:40.584Z,101015.95
2018-12-20T07:08:08.410Z,101021.83
2018-12-20T07:10:36.154Z,101022.79
2018-12-20T07:13:05.407Z,101026.03
2018-12-20T07:15:33.187Z,101019.67
2018-12-20T07:18:01.103Z,101022.03
2018-12-20T07:20:28.950Z,101025.71
2018-12-20T07:22:56.814Z,101024.55
2018-12-20T07:25:24.401Z,101023.23
2018-12-20T07:27:52.455Z,101022.27
2018-12-20T07:30:20.334Z,101014.47
2018-12-20T07:32:47.935Z,101020.27
2018-12-20T07:35:15.521Z,101021.42
2018-12-20T07:37:43.105Z,101017.34
2018-12-20T07:40:10.853Z,101026.55
2018-12-20T07:42:38.467Z,101020.19
2018-12-20T07:45:07.598Z,101024.75
2018-12-20T07:47:35.506Z,101030.19
2018-12-20T07:50:03.787Z,101034.34
2018-12-20T07:52:31.554Z,101029.11
2018-12-20T07:54:59.152Z,101024.75
2018-12-20T07:57:26.752Z,101024.15
2018-12-20T07:59:54.439Z,101022.39
2018-12-20T08:02:22.303Z,101012.91
2018-12-20T08:04:49.913Z,101017.55
2018-12-20T08:07:17.543Z,101018.52
2018-12-20T08:09:45.169Z,101013.91
2018-12-20T08:12:12.866Z,101021.59
2018-12-20T08:14:40.461Z,101020.75
2018-12-20T08:17:08.052Z,101026.75
2018-12-20T08:19:36.432Z,101034.43
2018-12-20T08:22:04.403Z,101030.95
2018-12-20T08:24:32.016Z,101035.58
2018-12-20T08:26:59.599Z,101043.34
2018-12-20T08:29:27.239Z,101043.23
2018-12-20T08:31:54.827Z,101038.31
2018-12-20T08:34:22.419Z,101041.27
2018-12-20T08:36:50.026Z,101039.07
2018-12-20T08:39:17.654Z,101033.98
2018-12-20T08:41:45.260Z,101044.31
2018-12-20T08:44:12.828Z,101044.55
2018-12-20T08:46:42.680Z,101041.42
2018-12-20T08:49:10.220Z,101045.23
2018-12-20T08:51:37.898Z,101047.19
2018-12-20T08:54:05.480Z,101047.27
2018-12-20T08:56:33.101Z,101048.87
2018-12-20T08:59:00.676Z,101042.95
2018-12-20T09:01:28.235Z,101042.34
2018-12-20T09:03:55.828Z,101048.54
2018-12-20T09:06:23.791Z,101050.53
2018-12-20T09:08:51.368Z,101054.09
2018-12-20T09:11:18.947Z,101060.70
2018-12-20T09:13:46.504Z,101055.50
2018-12-20T09:16:14.097Z,101059.47
2018-12-20T09:18:41.700Z,101059.50
2018-12-20T09:21:09.338Z,101059.98
2018-12-20T09:23:36.909Z,101063.74
2018-12-20T09:26:04.498Z,101062.62
2018-12-20T09:28:32.052Z,101065.67
2018-12-20T09:30:59.670Z,101059.02
2018-12-20T09:33:27.672Z,101063.38
2018-12-20T09:35:55.262Z,101058.34
2018-12-20T09:38:22.851Z,101067.74
2018-12-20T09:40:50.781Z,101064.60
2018-12-20T09:43:18.389Z,101066.66
2018-12-20T09:45:45.964Z,101064.60
2018-12-20T09:48:13.602Z,101060.64
2018-12-20T09:50:41.181Z,101052.08
2018-12-20T09:53:08.748Z,101053.09
2018-12-20T09:55:36.355Z,101047.50
2018-12-20T09:58:04.039Z,101039.33
2018-12-20T10:00:31.656Z,101039.89
2018-12-20T10:02:59.323Z,101044.08
2018-12-20T10:05:26.967Z,101036.76
2018-12-20T10:07:54.645Z,101031.72
2018-12-20T10:10:22.202Z,101029.26
2018-12-20T10:12:49.865Z,101030.69
2018-12-20T10:15:17.552Z,101033.09
2018-12-20T10:17:45.189Z,101033.63
2018-12-20T10:20:12.969Z,101028.34
2018-12-20T10:22:40.586Z,101025.45
2018-12-20T10:25:08.148Z,101023.31
2018-12-20T10:27:35.722Z,101016.94
2018-12-20T10:30:03.433Z,101009.36
2018-12-20T10:32:31.203Z,101008.88
2018-12-20T10:34:58.799Z,101008.02
2018-12-20T10:37:26.337Z,101005.44
2018-12-20T10:39:54.037Z,100999.83
2018-12-20T10:42:21.603Z,100990.45
2018-12-20T10:44:49.215Z,100993.37
2018-12-20T10:47:28.795Z,100996.89
2018-12-20T10:49:51.927Z,100992.51
2018-12-20T10:52:19.586Z,100990.15
2018-12-20T10:54:47.139Z,100990.25
2018-12-20T10:57:14.768Z,100982.11
2018-12-20T10:59:42.403Z,100977.53
2018-12-20T11:02:15.561Z,100970.41
2018-12-20T11:04:55.754Z,100966.80
2018-12-20T11:07:28.892Z,100967.20
2018-12-20T11:12:55.854Z,100964.92
2018-12-20T11:15:23.550Z,100959.20
2018-12-20T11:17:51.167Z,100951.08
2018-12-20T11:20:18.835Z,100950.37
2018-12-20T11:22:46.473Z,100945.43
2018-12-20T11:25:14.481Z,100943.55
2018-12-20T11:27:42.196Z,100940.64
2018-12-20T11:30:09.887Z,100941.18
2018-12-20T11:32:37.594Z,100942.87
2018-12-20T11:35:05.531Z,100936.03
2018-12-20T11:37:33.137Z,100946.88
2018-12-20T11:40:00.733Z,100943.13
2018-12-20T11:42:28.378Z,100947.40
2018-12-20T11:44:56.150Z,100947.80
2018-12-20T11:47:28.869Z,100939.73
2018-12-20T11:49:56.517Z,100939.03
2018-12-20T11:52:24.089Z,100933.25
2018-12-20T11:54:51.692Z,100943.43
2018-12-20T11:57:19.426Z,100934.78
2018-12-20T11:59:47.065Z,100931.93
2018-12-20T12:02:14.718Z,100932.63
2018-12-20T12:04:42.337Z,100928.09
2018-12-20T12:07:09.932Z,100923.14
2018-12-20T12:09:37.556Z,100934.92
2018-12-20T12:12:05.207Z,100937.41
2018-12-20T12:14:32.793Z,100928.01
2018-12-20T12:17:00.328Z,100927.12
2018-12-20T12:19:27.863Z,100926.02
2018-12-20T12:21:55.443Z,100933.25
2018-12-20T12:24:23.018Z,100937.98
2018-12-20T12:26:50.677Z,100935.82
2018-12-20T12:29:18.251Z,100945.00
2018-12-20T12:31:45.784Z,100933.22
2018-12-20T12:34:13.528Z,100932.16
2018-12-20T12:36:41.106Z,100934.80
2018-12-20T12:39:08.777Z,100935.11
2018-12-20T12:41:36.426Z,100929.20
2018-12-20T12:44:04.409Z,100922.77
2018-12-20T12:46:31.987Z,100922.58
2018-12-20T12:48:59.587Z,100916.72
2018-12-20T12:51:27.205Z,100918.03
2018-12-20T12:53:54.796Z,100918.21
2018-12-20T12:56:22.370Z,100915.28
2018-12-20T12:58:49.992Z,100912.23
2018-12-20T13:01:17.556Z,100909.14
2018-12-20T13:03:45.186Z,100914.16
2018-12-20T13:06:12.956Z,100915.73
2018-12-20T13:08:40.565Z,100911.91
2018-12-20T13:11:08.205Z,100916.72
2018-12-20T13:13:35.921Z,100920.51
2018-12-20T13:16:04.052Z,100927.22
2018-12-20T13:18:31.657Z,100927.09
2018-12-20T13:20:59.279Z,100925.15
2018-12-20T13:23:26.877Z,100920.69
2018-12-20T13:25:54.460Z,100926.83
2018-12-20T13:28:22.125Z,100926.47
2018-12-20T13:30:49.699Z,100918.97
2018-12-20T13:33:17.312Z,100918.70
2018-12-20T13:35:44.905Z,100917.91
2018-12-20T13:38:12.488Z,100914.02
2018-12-20T13:40:40.464Z,100916.23
2018-12-20T13:43:08.027Z,100912.92
2018-12-20T13:45:35.780Z,100916.45
2018-12-20T13:48:03.428Z,100917.78
2018-12-20T13:50:31.113Z,100920.42
2018-12-20T13:52:58.729Z,100920.83
2018-12-20T13:55:26.325Z,100925.15
2018-12-20T13:57:53.940Z,100928.09
2018-12-20T14:00:21.523Z,100924.05
2018-12-20T14:02:49.066Z,100924.05
2018-12-20T14:05:16.671Z,100926.77
2018-12-20T14:07:44.292Z,100929.77
2018-12-20T14:10:11.975Z,100925.09
2018-12-20T14:12:39.891Z,100924.66
2018-12-20T14:15:07.549Z,100924.05
2018-12-20T14:17:35.198Z,100930.80
2018-12-20T14:20:02.826Z,100928.72
2018-12-20T14:22:30.397Z,100924.39
2018-12-20T14:24:57.975Z,100924.53
2018-12-20T14:27:25.549Z,100925.45
2018-12-20T14:29:53.220Z,100928.50
2018-12-20T14:32:20.771Z,100935.06
2018-12-20T14:34:48.390Z,100930.31
2018-12-20T14:37:15.964Z,100925.31
2018-12-20T14:39:43.623Z,100933.73
2018-12-20T14:42:11.209Z,100939.50
2018-12-20T14:44:38.778Z,100941.74
2018-12-20T14:47:06.456Z,100940.55
2018-12-20T14:49:34.036Z,100943.91
2018-12-20T14:52:01.626Z,100946.45
2018-12-20T14:54:29.181Z,100947.78
2018-12-20T14:56:56.783Z,100947.95
2018-12-20T14:59:24.484Z,100943.91
2018-12-20T15:01:52.041Z,100949.55
2018-12-20T15:04:19.691Z,100946.55
2018-12-20T15:06:47.286Z,100947.25
2018-12-20T15:09:15.036Z,100952.45
2018-12-20T15:11:42.628Z,100949.94
2018-12-20T15:14:10.220Z,100942.44
2018-12-20T15:16:37.799Z,100945.20
2018-12-20T15:19:05.358Z,100938.59
2018-12-20T15:21:33.096Z,100943.14
2018-12-20T15:24:00.647Z,100942.28
2018-12-20T15:26:28.317Z,100944.93
2018-12-20T15:28:55.943Z,100945.48
2018-12-20T15:31:23.691Z,100948.74
2018-12-20T15:33:51.668Z,100954.52
2018-12-20T15:36:19.279Z,100951.68
2018-12-20T15:38:46.901Z,100957.38
2018-12-20T15:41:14.480Z,100952.09
2018-12-20T15:43:42.115Z,100953.77
2018-12-20T15:46:09.721Z,100954.97
2018-12-20T15:48:37.386Z,100953.13
2018-12-20T15:51:05.650Z,100957.80
2018-12-20T15:53:33.311Z,100958.16
2018-12-20T15:56:02.518Z,100958.16
2018-12-20T15:58:30.508Z,100958.38
2018-12-20T16:00:58.220Z,100954.67
2018-12-20T16:03:25.860Z,100956.34
2018-12-20T16:05:53.496Z,100954.95
2018-12-20T16:08:21.044Z,100955.73
2018-12-20T16:10:48.757Z,100954.05
2018-12-20T16:13:16.468Z,100950.22
2018-12-20T16:15:44.094Z,100955.64
2018-12-20T16:18:11.917Z,100959.13
2018-12-20T16:20:39.579Z,100953.97
2018-12-20T16:23:07.190Z,100959.41
2018-12-20T16:25:34.897Z,100952.16
2018-12-20T16:28:02.590Z,100960.73
2018-12-20T16:30:30.235Z,100964.41
2018-12-20T16:32:58.083Z,100963.92
2018-12-20T16:35:25.810Z,100964.70
2018-12-20T16:37:53.440Z,100963.03
2018-12-20T16:40:21.022Z,100957.73
2018-12-20T16:42:48.627Z,100955.00
2018-12-20T16:45:16.194Z,100961.48
2018-12-20T16:47:43.817Z,100958.13
2018-12-20T16:50:11.363Z,100951.52
2018-12-20T16:52:39.029Z,100956.06
2018-12-20T16:55:08.109Z,100957.03
2018-12-20T16:57:35.768Z,100958.22
2018-12-20T17:00:06.567Z,100952.32
2018-12-20T17:02:34.140Z,100955.09
2018-12-20T17:05:01.714Z,100953.91
2018-12-20T17:07:29.352Z,100950.91
2018-12-20T17:09:57.124Z,100951.48
2018-12-20T17:12:24.721Z,100949.73
2018-12-20T17:14:52.691Z,100948.63
2018-12-20T17:17:20.280Z,100954.28
2018-12-20T17:19:47.945Z,100950.50
2018-12-20T17:22:15.736Z,100940.98
2018-12-20T17:24:43.345Z,100946.75
2018-12-20T17:27:12.991Z,100945.78
2018-12-20T17:29:41.015Z,100946.45
2018-12-20T17:32:08.646Z,100947.16
2018-12-20T17:34:36.217Z,100947.93
2018-12-20T17:37:04.208Z,100948.20
2018-12-20T17:39:31.909Z,100950.05
2018-12-20T17:41:59.951Z,100944.75
2018-12-20T17:44:27.805Z,100948.77
2018-12-20T17:46:55.406Z,100945.07
2018-12-20T17:49:30.340Z,100945.07
2018-12-20T17:51:52.793Z,100949.39
2018-12-20T17:54:21.518Z,100948.72
2018-12-20T17:56:49.379Z,100950.80
2018-12-20T17:59:17.150Z,100947.80
2018-12-20T18:01:44.842Z,100949.48
2018-12-20T18:04:12.799Z,100947.86
2018-12-20T18:06:40.480Z,100946.48
2018-12-20T18:09:09.142Z,100948.16
2018-12-20T18:11:36.723Z,100953.45
2018-12-20T18:14:04.365Z,100953.09
2018-12-20T18:16:32.085Z,100952.48
2018-12-20T18:19:00.097Z,100952.39
2018-12-20T18:21:27.696Z,100954.96
2018-12-20T18:23:55.338Z,100947.80
2018-12-20T18:26:22.923Z,100944.75
2018-12-20T18:28:50.807Z,100946.61
2018-12-20T18:31:18.648Z,100951.77
2018-12-20T18:33:46.707Z,100951.77
2018-12-20T18:36:14.557Z,100951.91
2018-12-20T18:38:42.154Z,100956.98
2018-12-20T18:41:09.765Z,100951.85
2018-12-20T18:43:37.404Z,100954.82
2018-12-20T18:46:05.107Z,100952.60
2018-12-20T18:48:32.777Z,100958.11
2018-12-20T18:51:00.360Z,100953.58
2018-12-20T18:53:28.028Z,100961.64
2018-12-20T18:55:55.628Z,100963.27
2018-12-20T18:58:23.205Z,100960.95
2018-12-20T19:00:50.832Z,100964.92
2018-12-20T19:03:18.406Z,100961.44
2018-12-20T19:05:46.051Z,100957.20
2018-12-20T19:08:13.652Z,100961.17
2018-12-20T19:10:41.550Z,100964.39
2018-12-20T19:13:09.111Z,100963.20
2018-12-20T19:15:36.778Z,100962.01
2018-12-20T19:18:04.382Z,100959.09
2018-12-20T19:20:31.979Z,100961.09
2018-12-20T19:22:59.567Z,100965.82
2018-12-20T19:25:27.183Z,100968.14
2018-12-20T19:27:54.789Z,100967.80
2018-12-20T19:30:22.448Z,100970.80
2018-12-20T19:32:50.002Z,100962.37
2018-12-20T19:35:17.641Z,100970.62
2018-12-20T19:37:45.236Z,100971.69
2018-12-20T19:40:12.837Z,100970.62
2018-12-20T19:42:40.417Z,100965.82
2018-12-20T19:45:07.981Z,100965.69
2018-12-20T19:47:35.684Z,100964.44
2018-12-20T19:50:05.111Z,100967.80
2018-12-20T19:52:33.040Z,100963.83
2018-12-20T19:55:00.613Z,100965.50
2018-12-20T19:57:28.200Z,100963.47
2018-12-20T19:59:56.032Z,100964.66
2018-12-20T20:02:23.614Z,100962.28
2018-12-20T20:04:51.703Z,100959.64
2018-12-20T20:07:19.413Z,100962.41
2018-12-20T20:09:46.988Z,100956.09
2018-12-20T20:12:14.557Z,100960.55
2018-12-20T20:14:42.170Z,100959.71
2018-12-20T20:17:09.776Z,100960.06
2018-12-20T20:19:37.361Z,100956.09
2018-12-20T20:22:05.009Z,100955.53
2018-12-20T20:24:32.624Z,100956.38
2018-12-20T20:27:00.282Z,100959.72
2018-12-20T20:29:27.908Z,100959.15
2018-12-20T20:31:55.583Z,100958.45
2018-12-20T20:34:23.200Z,100959.09
2018-12-20T20:36:50.788Z,100958.87
2018-12-20T20:39:18.443Z,100956.72
2018-12-20T20:41:46.027Z,100956.72
2018-12-20T20:44:13.673Z,100953.58
2018-12-20T20:46:41.268Z,100964.58
2018-12-20T20:49:08.943Z,100947.02
2018-12-20T20:51:36.510Z,100951.34
2018-12-20T20:54:04.114Z,100942.30
2018-12-20T20:56:31.718Z,100945.92
2018-12-20T20:58:59.667Z,100934.98
2018-12-20T21:01:27.247Z,100933.12
2018-12-20T21:04:03.224Z,100940.22
2018-12-20T21:06:24.522Z,100940.41
2018-12-20T21:08:52.136Z,100941.33
2018-12-20T21:11:19.709Z,100933.30
2018-12-20T21:13:47.281Z,100937.36
2018-12-20T21:16:14.927Z,100939.08
2018-12-20T21:18:42.526Z,100937.63
2018-12-20T21:21:10.360Z,100936.52
2018-12-20T21:23:37.947Z,100935.06
2018-12-20T21:26:05.666Z,100932.12
2018-12-20T21:28:33.260Z,100931.23
2018-12-20T21:31:01.121Z,100940.97
2018-12-20T21:33:28.787Z,100933.39
2018-12-20T21:35:56.391Z,100938.47
2018-12-20T21:38:23.987Z,100937.71
2018-12-20T21:40:51.667Z,100939.30
2018-12-20T21:43:19.315Z,100938.25
2018-12-20T21:45:46.951Z,100938.89
2018-12-20T21:48:14.691Z,100939.92
2018-12-20T21:50:42.356Z,100940.22
2018-12-20T21:53:10.205Z,100940.41
2018-12-20T21:55:37.822Z,100947.86
2018-12-20T21:58:05.431Z,100947.19
2018-12-20T22:00:33.024Z,100950.45
2018-12-20T22:03:00.591Z,100949.13
2018-12-20T22:05:28.517Z,100951.91
2018-12-20T22:07:56.122Z,100949.27
2018-12-20T22:10:23.840Z,100945.35
2018-12-20T22:12:51.465Z,100949.05
2018-12-20T22:15:19.091Z,100940.41
2018-12-20T22:17:46.729Z,100943.89
2018-12-20T22:20:14.721Z,100943.00
2018-12-20T22:22:42.655Z,100942.08
2018-12-20T22:25:10.238Z,100940.55
2018-12-20T22:27:37.828Z,100936.17
2018-12-20T22:30:07.753Z,100935.82
2018-12-20T22:32:35.441Z,100934.50
2018-12-20T22:35:03.009Z,100931.55
2018-12-20T22:37:30.593Z,100932.47
2018-12-20T22:39:58.247Z,100933.52
2018-12-20T22:42:25.840Z,100928.72
2018-12-20T22:44:53.450Z,100925.72
2018-12-20T22:47:21.030Z,100924.27
2018-12-20T22:49:48.690Z,100930.17
2018-12-20T22:52:16.266Z,100934.90
2018-12-20T22:54:44.237Z,100934.20
2018-12-20T22:59:45.322Z,100928.91
2018-12-20T23:02:18.032Z,100926.61
2018-12-20T23:04:42.585Z,100926.20
2018-12-20T23:07:10.221Z,100926.95
2018-12-20T23:09:37.909Z,100919.23
2018-12-20T23:12:05.655Z,100926.83
2018-12-20T23:14:33.269Z,100920.83
2018-12-20T23:17:00.961Z,100917.86
2018-12-20T23:19:28.854Z,100918.88
2018-12-20T23:21:56.724Z,100917.38
2018-12-20T23:24:24.288Z,100917.08
2018-12-20T23:26:51.842Z,100913.94
2018-12-20T23:29:20.075Z,100910.95
2018-12-20T23:31:47.713Z,100906.62
2018-12-20T23:34:15.373Z,100907.55
2018-12-20T23:36:43.144Z,100905.66
2018-12-20T23:39:10.761Z,100902.81
2018-12-20T23:41:38.423Z,100903.70
2018-12-20T23:44:06.927Z,100901.20
2018-12-20T23:46:34.614Z,100894.94
2018-12-20T23:49:02.468Z,100900.88
2018-12-20T23:51:30.091Z,100899.20
2018-12-20T23:53:57.660Z,100896.47
2018-12-20T23:56:25.444Z,100891.83
2018-12-20T23:58:53.080Z,100899.25
